Time;durP1;ratioP1;P1;durP2;ratioP2;P2;SDS_P1;SDS_P2;PMS_P1;PMS_P2;Temp;Humidity;BMP_temperature;BMP_pressure;BME280_temperature;BME280_humidity;BME280_pressure;Samples;Min_cycle;Max_cycle;Signal;HPM_P1;HPM_P2
2021/12/25 00:01:23;;;;;;;13.50;5.13;;;;;;;;;;5112665;28;20442;-49
2021/12/25 00:03:50;;;;;;;10.82;4.80;;;;;;;;;;5120273;28;20027;-47
2021/12/25 00:06:15;;;;;;;8.70;5.10;;;;;;;;;;5114742;28;20060;-51
2021/12/25 00:08:41;;;;;;;13.75;5.95;;;;;;;;;;5113757;28;20011;-47
2021/12/25 00:11:08;;;;;;;6.88;3.95;;;;;;;;;;5117035;28;20050;-50
2021/12/25 00:13:34;;;;;;;12.27;7.57;;;;;;;;;;5117408;27;20020;-45
2021/12/25 00:16:00;;;;;;;12.68;10.25;;;;;;;;;;5116439;27;20114;-46
2021/12/25 00:18:25;;;;;;;8.00;7.20;;;;;;;;;;5116312;27;20099;-45
2021/12/25 00:20:50;;;;;;;6.40;4.63;;;;;;;;;;5116397;27;20075;-46
2021/12/25 00:23:16;;;;;;;16.25;10.57;;;;;;;;;;5115184;27;20066;-46
2021/12/25 00:25:46;;;;;;;9.25;7.30;;;;;;;;;;5117514;27;20016;-45
2021/12/25 00:33:33;;;;;;;9.45;5.95;;;;;;;;;;5113756;27;20012;-50
2021/12/25 00:35:59;;;;;;;12.30;10.48;;;;;;;;;;5112903;27;20106;-45
2021/12/25 00:38:25;;;;;;;9.18;7.68;;;;;;;;;;5114432;27;20544;-46
2021/12/25 00:40:50;;;;;;;8.98;6.00;;;;;;;;;;5114343;27;20597;-46
2021/12/25 00:43:15;;;;;;;8.70;7.00;;;;;;;;;;5113040;27;20028;-46
2021/12/25 00:45:41;;;;;;;7.10;5.53;;;;;;;;;;5114689;27;20088;-47
2021/12/25 00:48:06;;;;;;;9.88;6.28;;;;;;;;;;5116568;27;20031;-45
2021/12/25 00:50:32;;;;;;;8.57;7.70;;;;;;;;;;5119363;27;20050;-44
2021/12/25 00:52:57;;;;;;;19.85;9.18;;;;;;;;;;5116000;27;20030;-46
2021/12/25 00:55:22;;;;;;;8.38;5.75;;;;;;;;;;5115437;27;20035;-49
2021/12/25 00:57:48;;;;;;;6.80;5.45;;;;;;;;;;5114735;27;20028;-47
2021/12/25 01:00:13;;;;;;;5.93;4.75;;;;;;;;;;5116702;27;20038;-50
2021/12/25 01:02:40;;;;;;;6.88;5.60;;;;;;;;;;5117834;27;20027;-47
2021/12/25 01:05:07;;;;;;;11.25;6.93;;;;;;;;;;5118994;27;20535;-49
2021/12/25 01:07:32;;;;;;;10.65;5.50;;;;;;;;;;5119206;27;20035;-47
2021/12/25 01:09:57;;;;;;;9.82;8.38;;;;;;;;;;5113460;27;20020;-46
2021/12/25 01:12:23;;;;;;;15.82;14.30;;;;;;;;;;5110773;27;20068;-44
2021/12/25 01:14:55;;;;;;;12.60;11.38;;;;;;;;;;5115784;27;20035;-46
2021/12/25 01:17:57;;;;;;;19.60;15.00;;;;;;;;;;5117344;27;20018;-48
2021/12/25 01:20:33;;;;;;;10.35;4.45;;;;;;;;;;5111895;27;20039;-47
2021/12/25 01:49:09;;;;;;;13.40;8.60;;;;;;;;;;5117085;27;20034;-45
2021/12/25 01:51:34;;;;;;;2.80;2.17;;;;;;;;;;5115198;27;20024;-48
2021/12/25 01:54:00;;;;;;;2.95;2.25;;;;;;;;;;5115198;27;20016;-47
2021/12/25 01:56:26;;;;;;;3.00;1.83;;;;;;;;;;5118150;27;20080;-45
2021/12/25 01:58:51;;;;;;;4.63;3.55;;;;;;;;;;5117287;27;20106;-49
2021/12/25 02:01:17;;;;;;;3.80;2.60;;;;;;;;;;5113539;27;20024;-52
2021/12/25 02:03:43;;;;;;;12.52;3.65;;;;;;;;;;5112306;27;20102;-48
2021/12/25 02:06:09;;;;;;;11.75;10.65;;;;;;;;;;5113904;27;20445;-49
2021/12/25 02:08:35;;;;;;;9.63;8.65;;;;;;;;;;5117901;27;20717;-45
2021/12/25 02:11:01;;;;;;;6.85;5.63;;;;;;;;;;5114621;27;20019;-47
2021/12/25 02:13:26;;;;;;;4.97;4.47;;;;;;;;;;5115845;27;20030;-51
2021/12/25 02:15:54;;;;;;;4.78;3.72;;;;;;;;;;5111711;27;20023;-44
2021/12/25 02:18:32;;;;;;;11.88;8.32;;;;;;;;;;5115709;27;20024;-45
2021/12/25 02:21:17;;;;;;;6.55;5.00;;;;;;;;;;5115265;27;20055;-46
2021/12/25 02:23:43;;;;;;;3.10;1.95;;;;;;;;;;5120272;27;20034;-46
2021/12/25 02:26:08;;;;;;;4.65;2.92;;;;;;;;;;5114861;27;20016;-48
2021/12/25 02:28:34;;;;;;;4.50;2.85;;;;;;;;;;5112610;27;20979;-47
2021/12/25 02:31:01;;;;;;;5.95;2.35;;;;;;;;;;5116428;27;20024;-46
2021/12/25 02:33:27;;;;;;;2.53;1.48;;;;;;;;;;5114950;27;20049;-45
2021/12/25 02:35:53;;;;;;;2.22;1.27;;;;;;;;;;5113377;27;20015;-46
2021/12/25 02:38:18;;;;;;;1.42;0.80;;;;;;;;;;5115294;27;20076;-49
2021/12/25 02:40:43;;;;;;;2.17;1.02;;;;;;;;;;5118340;27;20034;-45
2021/12/25 02:43:09;;;;;;;2.00;1.13;;;;;;;;;;5115502;27;20059;-49
2021/12/25 02:45:34;;;;;;;1.15;0.60;;;;;;;;;;5117074;27;20088;-46
2021/12/25 02:48:05;;;;;;;1.52;0.93;;;;;;;;;;5116852;27;20015;-46
2021/12/25 02:50:31;;;;;;;1.88;1.17;;;;;;;;;;5118137;27;20054;-44
2021/12/25 02:52:58;;;;;;;0.90;0.70;;;;;;;;;;5114972;27;20031;-48
2021/12/25 02:55:24;;;;;;;6.60;1.83;;;;;;;;;;5121937;27;20034;-47
2021/12/25 02:57:52;;;;;;;4.63;3.63;;;;;;;;;;5114065;27;20059;-49
2021/12/25 03:00:22;;;;;;;6.40;2.75;;;;;;;;;;5116363;27;20023;-46
2021/12/25 03:02:47;;;;;;;3.70;3.13;;;;;;;;;;5114651;27;20032;-47
2021/12/25 03:05:13;;;;;;;5.85;2.90;;;;;;;;;;5119635;27;20030;-46
2021/12/25 03:07:38;;;;;;;5.93;4.50;;;;;;;;;;5116124;27;20031;-45
2021/12/25 03:10:05;;;;;;;9.98;4.32;;;;;;;;;;5115689;27;20551;-45
2021/12/25 03:12:37;;;;;;;15.57;11.05;;;;;;;;;;5113213;27;20019;-50
2021/12/25 03:17:28;;;;;;;5.20;4.45;;;;;;;;;;5114673;27;20114;-45
2021/12/25 03:19:56;;;;;;;6.22;4.90;;;;;;;;;;5116034;27;20015;-48
2021/12/25 03:22:21;;;;;;;5.22;3.53;;;;;;;;;;5118649;27;20665;-49
2021/12/25 03:24:47;;;;;;;6.60;4.03;;;;;;;;;;5114678;27;20031;-48
2021/12/25 03:27:12;;;;;;;4.90;2.90;;;;;;;;;;5114560;27;20027;-49
2021/12/25 03:29:40;;;;;;;3.75;2.15;;;;;;;;;;5118382;27;20609;-47
2021/12/25 03:32:06;;;;;;;1.90;1.55;;;;;;;;;;5111246;27;20023;-47
2021/12/25 03:34:32;;;;;;;4.07;2.63;;;;;;;;;;5114261;28;20376;-49
2021/12/25 03:36:57;;;;;;;27.27;3.55;;;;;;;;;;5114684;28;20466;-49
2021/12/25 03:39:22;;;;;;;7.07;3.80;;;;;;;;;;5113195;28;20030;-47
2021/12/25 03:41:47;;;;;;;8.48;4.68;;;;;;;;;;5113038;28;20799;-50
2021/12/25 03:44:13;;;;;;;4.93;3.35;;;;;;;;;;5110102;28;20131;-47
2021/12/25 03:46:40;;;;;;;6.03;2.33;;;;;;;;;;5115534;28;20065;-49
2021/12/25 03:49:12;;;;;;;4.05;2.53;;;;;;;;;;5120001;27;20012;-49
2021/12/25 03:59:59;;;;;;;3.13;2.40;;;;;;;;;;5119236;27;20083;-47
2021/12/25 04:02:32;;;;;;;3.67;2.13;;;;;;;;;;5118567;27;20600;-50
2021/12/25 04:05:00;;;;;;;5.95;5.20;;;;;;;;;;5116798;27;20073;-50
2021/12/25 04:10:06;;;;;;;9.38;2.83;;;;;;;;;;5114997;27;20030;-50
2021/12/25 04:12:32;;;;;;;4.30;2.40;;;;;;;;;;5120126;27;20024;-46
2021/12/25 04:14:57;;;;;;;2.92;1.23;;;;;;;;;;5122239;27;20023;-51
2021/12/25 04:17:22;;;;;;;3.30;1.35;;;;;;;;;;5116806;27;20380;-50
2021/12/25 04:19:48;;;;;;;2.10;1.55;;;;;;;;;;5117132;27;20070;-50
2021/12/25 04:22:23;;;;;;;2.88;1.52;;;;;;;;;;5120674;27;20078;-49
2021/12/25 04:24:49;;;;;;;1.15;0.88;;;;;;;;;;5117863;27;20113;-48
2021/12/25 04:27:16;;;;;;;5.13;1.80;;;;;;;;;;5118121;27;20019;-49
2021/12/25 04:29:58;;;;;;;1.08;0.73;;;;;;;;;;5116041;27;20024;-45
2021/12/25 05:02:14;;;;;;;5.82;3.97;;;;;;;;;;5114020;27;20062;-47
2021/12/25 05:04:45;;;;;;;3.85;2.22;;;;;;;;;;5113819;27;20075;-48
2021/12/25 05:07:12;;;;;;;2.53;1.50;;;;;;;;;;5113241;27;20033;-46
2021/12/25 05:09:37;;;;;;;1.55;0.85;;;;;;;;;;5120334;27;20059;-48
2021/12/25 05:12:03;;;;;;;1.77;1.02;;;;;;;;;;5117281;27;20046;-46
2021/12/25 05:14:28;;;;;;;19.10;2.40;;;;;;;;;;5118559;27;20024;-45
2021/12/25 05:16:53;;;;;;;2.03;1.38;;;;;;;;;;5117863;27;20027;-47
2021/12/25 05:19:19;;;;;;;2.50;1.35;;;;;;;;;;5120883;27;20049;-44
2021/12/25 05:21:45;;;;;;;2.50;1.45;;;;;;;;;;5119011;27;20054;-48
2021/12/25 05:24:10;;;;;;;1.92;1.25;;;;;;;;;;5118733;27;20019;-52
2021/12/25 05:26:36;;;;;;;1.38;0.57;;;;;;;;;;5123594;27;20031;-46
2021/12/25 05:29:02;;;;;;;1.40;1.10;;;;;;;;;;5119380;27;20020;-46
2021/12/25 05:31:32;;;;;;;2.80;1.80;;;;;;;;;;5117784;27;20031;-47
2021/12/25 05:33:57;;;;;;;2.00;1.10;;;;;;;;;;5120282;27;20019;-46
2021/12/25 05:36:24;;;;;;;2.13;1.15;;;;;;;;;;5120837;27;20011;-48
2021/12/25 05:38:49;;;;;;;2.10;1.13;;;;;;;;;;5113666;27;20012;-47
2021/12/25 05:41:15;;;;;;;2.95;1.85;;;;;;;;;;5118121;27;20408;-44
2021/12/25 05:43:40;;;;;;;1.98;1.25;;;;;;;;;;5118299;27;20020;-50
2021/12/25 05:46:05;;;;;;;1.25;0.65;;;;;;;;;;5119422;27;20019;-49
2021/12/25 05:48:35;;;;;;;2.22;1.45;;;;;;;;;;5116683;27;20527;-44
2021/12/25 05:51:01;;;;;;;4.25;1.30;;;;;;;;;;5116018;27;20026;-46
2021/12/25 05:53:27;;;;;;;1.40;0.93;;;;;;;;;;5116306;27;20051;-46
2021/12/25 05:55:52;;;;;;;1.50;0.88;;;;;;;;;;5116112;27;20099;-46
2021/12/25 05:58:17;;;;;;;2.58;0.80;;;;;;;;;;5117372;27;20396;-47
2021/12/25 06:00:43;;;;;;;1.13;0.70;;;;;;;;;;5119137;27;20028;-47
2021/12/25 06:03:08;;;;;;;1.83;1.05;;;;;;;;;;5116250;27;20030;-49
2021/12/25 06:05:33;;;;;;;1.73;1.08;;;;;;;;;;5115677;27;20027;-49
2021/12/25 06:07:59;;;;;;;1.95;1.00;;;;;;;;;;5120816;27;20439;-47
2021/12/25 06:10:24;;;;;;;1.25;1.05;;;;;;;;;;5118183;27;20526;-49
2021/12/25 06:12:54;;;;;;;2.08;1.00;;;;;;;;;;5120150;27;20020;-46
2021/12/25 06:15:20;;;;;;;2.33;1.05;;;;;;;;;;5118136;27;20065;-46
2021/12/25 06:17:45;;;;;;;1.10;0.60;;;;;;;;;;5117170;27;20027;-46
2021/12/25 06:20:11;;;;;;;1.67;0.80;;;;;;;;;;5118932;27;20123;-46
2021/12/25 06:22:36;;;;;;;3.15;0.93;;;;;;;;;;5115284;27;20106;-46
2021/12/25 06:25:03;;;;;;;2.15;1.30;;;;;;;;;;5117442;27;20109;-48
2021/12/25 06:27:29;;;;;;;3.60;1.00;;;;;;;;;;5118042;27;20038;-45
2021/12/25 06:29:54;;;;;;;3.00;1.67;;;;;;;;;;5117893;27;20022;-46
2021/12/25 06:32:19;;;;;;;5.30;1.55;;;;;;;;;;5114964;27;20072;-47
2021/12/25 06:34:45;;;;;;;1.48;1.05;;;;;;;;;;5115192;27;20012;-47
2021/12/25 06:37:11;;;;;;;13.25;9.38;;;;;;;;;;5116995;27;20023;-47
2021/12/25 06:39:36;;;;;;;3.90;2.60;;;;;;;;;;5115936;27;20663;-49
2021/12/25 06:42:02;;;;;;;2.53;1.23;;;;;;;;;;5118089;27;20452;-46
2021/12/25 06:44:27;;;;;;;1.92;0.90;;;;;;;;;;5111823;27;20026;-45
2021/12/25 06:46:53;;;;;;;1.02;0.73;;;;;;;;;;5114237;27;20099;-48
2021/12/25 06:49:19;;;;;;;3.20;1.40;;;;;;;;;;5115553;27;20396;-51
2021/12/25 06:51:44;;;;;;;1.73;1.17;;;;;;;;;;5116421;27;20027;-48
2021/12/25 06:54:09;;;;;;;2.13;1.23;;;;;;;;;;5116455;27;20482;-48
2021/12/25 06:56:35;;;;;;;2.90;2.00;;;;;;;;;;5115700;27;20034;-47
2021/12/25 06:59:00;;;;;;;6.72;1.30;;;;;;;;;;5118196;27;20102;-48
2021/12/25 07:01:25;;;;;;;1.17;0.73;;;;;;;;;;5117610;27;20436;-46
2021/12/25 07:03:50;;;;;;;1.98;1.15;;;;;;;;;;5118758;27;20027;-46
2021/12/25 07:06:16;;;;;;;6.30;0.95;;;;;;;;;;5113102;27;20031;-45
2021/12/25 07:08:41;;;;;;;4.10;1.75;;;;;;;;;;5115958;27;20445;-47
2021/12/25 07:11:07;;;;;;;2.38;1.52;;;;;;;;;;5117080;27;20046;-48
2021/12/25 07:13:32;;;;;;;2.15;0.88;;;;;;;;;;5112108;27;20099;-48
2021/12/25 07:15:57;;;;;;;2.90;1.42;;;;;;;;;;5118655;27;20127;-46
2021/12/25 07:18:23;;;;;;;1.55;0.65;;;;;;;;;;5117407;27;20024;-46
2021/12/25 07:20:50;;;;;;;0.95;0.40;;;;;;;;;;5118567;27;20419;-51
2021/12/25 07:23:16;;;;;;;3.03;0.95;;;;;;;;;;5113698;28;20011;-46
2021/12/25 07:25:41;;;;;;;2.50;1.33;;;;;;;;;;5120815;27;20102;-46
2021/12/25 07:28:07;;;;;;;10.43;3.03;;;;;;;;;;5117168;27;20065;-47
2021/12/25 07:30:33;;;;;;;5.78;2.72;;;;;;;;;;5114074;27;20054;-47
2021/12/25 07:32:58;;;;;;;2.60;1.65;;;;;;;;;;5118589;27;20122;-48
2021/12/25 07:35:24;;;;;;;2.10;1.50;;;;;;;;;;5114228;27;20475;-46
2021/12/25 07:37:49;;;;;;;2.90;1.70;;;;;;;;;;5118873;28;20024;-45
2021/12/25 07:40:14;;;;;;;1.77;1.23;;;;;;;;;;5116434;28;20029;-45
2021/12/25 07:42:40;;;;;;;1.95;0.95;;;;;;;;;;5116964;28;20119;-46
2021/12/25 07:45:07;;;;;;;2.72;1.63;;;;;;;;;;5116051;28;20102;-48
2021/12/25 07:47:39;;;;;;;7.43;1.80;;;;;;;;;;5117056;28;20019;-48
2021/12/25 07:50:04;;;;;;;2.10;1.45;;;;;;;;;;5115539;28;20504;-46
2021/12/25 07:52:30;;;;;;;3.63;1.35;;;;;;;;;;5115879;28;20089;-48
2021/12/25 07:54:55;;;;;;;1.92;1.02;;;;;;;;;;5114860;28;20675;-49
2021/12/25 07:57:21;;;;;;;4.15;2.97;;;;;;;;;;5116221;28;20105;-47
2021/12/25 07:59:46;;;;;;;13.48;8.88;;;;;;;;;;5119815;28;20019;-47
2021/12/25 08:02:12;;;;;;;10.48;6.35;;;;;;;;;;5119588;28;20694;-44
2021/12/25 08:04:37;;;;;;;3.97;3.45;;;;;;;;;;5111744;28;20028;-46
2021/12/25 08:07:03;;;;;;;10.50;4.80;;;;;;;;;;5114384;28;20243;-47
2021/12/25 08:09:30;;;;;;;5.85;3.75;;;;;;;;;;5114887;28;20102;-46
2021/12/25 08:11:56;;;;;;;7.15;4.35;;;;;;;;;;5112275;28;20052;-46
2021/12/25 08:14:25;;;;;;;3.97;1.92;;;;;;;;;;5116219;28;20011;-48
2021/12/25 08:16:50;;;;;;;2.45;1.75;;;;;;;;;;5117168;28;20031;-46
2021/12/25 08:19:15;;;;;;;7.68;3.05;;;;;;;;;;5114492;28;20016;-46
2021/12/25 08:21:40;;;;;;;4.22;2.97;;;;;;;;;;5116825;28;20467;-47
2021/12/25 08:24:06;;;;;;;3.22;2.80;;;;;;;;;;5117287;28;20023;-49
2021/12/25 08:26:31;;;;;;;2.55;1.52;;;;;;;;;;5112481;28;20027;-49
2021/12/25 08:28:56;;;;;;;2.15;1.30;;;;;;;;;;5114887;28;20022;-46
2021/12/25 08:31:22;;;;;;;2.15;1.10;;;;;;;;;;5115397;28;20011;-48
2021/12/25 08:33:48;;;;;;;1.65;1.08;;;;;;;;;;5113283;27;20043;-46
2021/12/25 08:36:14;;;;;;;1.98;1.17;;;;;;;;;;5117141;27;20022;-45
2021/12/25 08:38:39;;;;;;;2.17;1.35;;;;;;;;;;5117301;27;20461;-47
2021/12/25 08:41:04;;;;;;;4.55;3.08;;;;;;;;;;5117247;27;20565;-46
2021/12/25 08:43:34;;;;;;;4.53;2.22;;;;;;;;;;5118529;27;20066;-44
2021/12/25 08:46:12;;;;;;;6.18;3.97;;;;;;;;;;5123761;27;20476;-48
2021/12/25 08:48:37;;;;;;;2.47;1.65;;;;;;;;;;5117863;27;20041;-47
2021/12/25 08:51:03;;;;;;;3.17;2.00;;;;;;;;;;5120134;27;20605;-47
2021/12/25 08:53:28;;;;;;;7.13;3.65;;;;;;;;;;5114832;27;20134;-46
2021/12/25 08:55:55;;;;;;;3.38;1.77;;;;;;;;;;5117735;27;20019;-49
2021/12/25 08:58:21;;;;;;;7.70;3.17;;;;;;;;;;5117420;27;20034;-48
2021/12/25 09:00:48;;;;;;;2.38;2.03;;;;;;;;;;5116651;27;20051;-47
2021/12/25 09:03:13;;;;;;;2.00;0.70;;;;;;;;;;5117190;27;20559;-45
2021/12/25 09:05:38;;;;;;;4.85;2.92;;;;;;;;;;5116076;27;20020;-45
2021/12/25 09:08:05;;;;;;;12.57;3.50;;;;;;;;;;5118250;27;20019;-45
2021/12/25 09:10:30;;;;;;;7.75;2.92;;;;;;;;;;5119538;27;20023;-46
2021/12/25 09:12:56;;;;;;;3.10;2.70;;;;;;;;;;5115917;27;20026;-50
2021/12/25 09:15:22;;;;;;;5.85;3.05;;;;;;;;;;5115618;27;20011;-46
2021/12/25 09:17:47;;;;;;;4.20;2.65;;;;;;;;;;5119067;27;20019;-47
2021/12/25 09:20:15;;;;;;;4.40;3.55;;;;;;;;;;5115961;27;20023;-50
2021/12/25 09:22:41;;;;;;;5.82;4.28;;;;;;;;;;5119973;27;20117;-45
2021/12/25 09:25:06;;;;;;;4.70;3.80;;;;;;;;;;5119738;27;20106;-40
2021/12/25 09:27:32;;;;;;;6.57;2.80;;;;;;;;;;5119188;27;20026;-40
2021/12/25 09:29:57;;;;;;;4.75;2.17;;;;;;;;;;5120607;27;20012;-42
2021/12/25 09:32:23;;;;;;;4.82;3.22;;;;;;;;;;5119631;27;20571;-43
2021/12/25 09:34:48;;;;;;;6.30;4.07;;;;;;;;;;5121149;27;20022;-41
2021/12/25 09:37:13;;;;;;;9.63;6.22;;;;;;;;;;5120383;27;20037;-44
2021/12/25 09:39:40;;;;;;;5.82;3.58;;;;;;;;;;5117619;27;20518;-41
2021/12/25 09:42:05;;;;;;;4.45;3.10;;;;;;;;;;5116628;27;20023;-41
2021/12/25 09:44:31;;;;;;;5.22;1.70;;;;;;;;;;5118511;27;20025;-46
2021/12/25 09:46:56;;;;;;;2.47;1.40;;;;;;;;;;5115056;27;20031;-46
2021/12/25 09:49:24;;;;;;;8.60;6.72;;;;;;;;;;5122232;27;20015;-44
2021/12/25 09:51:49;;;;;;;8.73;7.45;;;;;;;;;;5120768;27;20019;-41
2021/12/25 09:54:15;;;;;;;5.40;3.97;;;;;;;;;;5120188;27;20516;-42
2021/12/25 09:56:41;;;;;;;6.30;3.42;;;;;;;;;;5118415;27;20034;-42
2021/12/25 09:59:07;;;;;;;2.00;1.33;;;;;;;;;;5117523;27;20198;-42
2021/12/25 10:01:42;;;;;;;3.35;2.25;;;;;;;;;;5117732;27;20015;-45
2021/12/25 10:04:09;;;;;;;2.85;1.83;;;;;;;;;;5119612;27;20050;-43
2021/12/25 10:06:36;;;;;;;5.95;4.13;;;;;;;;;;5120196;27;20015;-42
2021/12/25 10:09:17;;;;;;;5.72;3.22;;;;;;;;;;5121030;27;20027;-45
2021/12/25 10:12:01;;;;;;;6.53;3.53;;;;;;;;;;5118822;27;20012;-44
2021/12/25 10:14:27;;;;;;;3.30;2.25;;;;;;;;;;5118105;27;20034;-44
2021/12/25 10:16:52;;;;;;;1.48;0.80;;;;;;;;;;5117774;27;20044;-47
2021/12/25 10:19:20;;;;;;;1.17;0.75;;;;;;;;;;5121057;27;20024;-43
2021/12/25 10:21:46;;;;;;;3.17;0.88;;;;;;;;;;5118620;27;20082;-41
2021/12/25 10:24:13;;;;;;;3.78;1.00;;;;;;;;;;5118630;27;20928;-42
2021/12/25 10:26:40;;;;;;;6.18;2.30;;;;;;;;;;5118907;27;20098;-42
2021/12/25 10:29:21;;;;;;;1.83;0.82;;;;;;;;;;5120707;27;20015;-47
2021/12/25 10:31:47;;;;;;;1.42;0.40;;;;;;;;;;5118131;27;20418;-45
2021/12/25 10:34:16;;;;;;;1.52;0.95;;;;;;;;;;5120733;27;20019;-42
2021/12/25 10:36:42;;;;;;;1.38;1.02;;;;;;;;;;5121449;27;20106;-44
2021/12/25 10:39:13;;;;;;;3.85;2.08;;;;;;;;;;5120831;27;20048;-43
2021/12/25 10:41:52;;;;;;;1.73;1.00;;;;;;;;;;5122821;27;20011;-42
2021/12/25 10:44:19;;;;;;;0.88;0.45;;;;;;;;;;5121974;27;20028;-42
2021/12/25 10:46:49;;;;;;;4.25;0.95;;;;;;;;;;5126049;27;20019;-45
2021/12/25 10:49:14;;;;;;;5.18;1.25;;;;;;;;;;5120927;27;20019;-44
2021/12/25 10:51:39;;;;;;;4.45;1.20;;;;;;;;;;5119841;27;20030;-41
2021/12/25 10:54:06;;;;;;;2.63;1.08;;;;;;;;;;5118696;27;20020;-41
2021/12/25 10:56:36;;;;;;;1.52;1.23;;;;;;;;;;5119464;27;20027;-41
2021/12/25 10:59:04;;;;;;;1.20;0.77;;;;;;;;;;5118984;27;20019;-44
2021/12/25 11:01:36;;;;;;;1.98;0.90;;;;;;;;;;5117254;27;20015;-41
2021/12/25 11:04:01;;;;;;;1.80;1.30;;;;;;;;;;5115948;27;20015;-43
2021/12/25 11:06:27;;;;;;;0.95;0.43;;;;;;;;;;5116069;27;20026;-43
2021/12/25 11:08:52;;;;;;;2.17;0.93;;;;;;;;;;5118754;27;20098;-45
2021/12/25 11:11:18;;;;;;;3.85;1.58;;;;;;;;;;5117065;27;20023;-48
2021/12/25 11:13:47;;;;;;;3.92;2.90;;;;;;;;;;5119889;27;20099;-46
2021/12/25 11:16:16;;;;;;;0.98;0.60;;;;;;;;;;5116002;27;20027;-43
2021/12/25 11:21:28;;;;;;;1.13;0.70;;;;;;;;;;5115329;27;20056;-44
2021/12/25 11:24:13;;;;;;;4.55;0.52;;;;;;;;;;5113096;27;20026;-41
2021/12/25 11:26:39;;;;;;;1.25;0.45;;;;;;;;;;5117314;27;20024;-44
2021/12/25 11:29:06;;;;;;;0.95;0.38;;;;;;;;;;5101027;27;20440;-41
2021/12/25 11:31:32;;;;;;;0.22;0.10;;;;;;;;;;5117966;27;20494;-41
2021/12/25 11:33:58;;;;;;;0.90;0.55;;;;;;;;;;5114967;27;20015;-41
2021/12/25 11:36:23;;;;;;;1.00;0.57;;;;;;;;;;5116193;28;20494;-41
2021/12/25 11:38:49;;;;;;;1.75;0.73;;;;;;;;;;5116964;27;20026;-43
2021/12/25 11:41:15;;;;;;;0.50;0.35;;;;;;;;;;5115446;28;20545;-41
2021/12/25 11:43:43;;;;;;;3.92;2.97;;;;;;;;;;5116322;28;20023;-45
2021/12/25 11:46:09;;;;;;;3.88;0.98;;;;;;;;;;5115050;28;20027;-44
2021/12/25 11:48:35;;;;;;;1.75;1.15;;;;;;;;;;5118224;28;20023;-42
2021/12/25 11:51:01;;;;;;;5.07;4.10;;;;;;;;;;5117985;28;20102;-43
2021/12/25 11:53:44;;;;;;;5.50;4.38;;;;;;;;;;5112550;28;20832;-43
2021/12/25 11:58:39;;;;;;;4.88;3.03;;;;;;;;;;5118930;28;20019;-51
2021/12/25 12:01:34;;;;;;;6.13;5.20;;;;;;;;;;5116466;28;20787;-42
2021/12/25 12:04:12;;;;;;;2.40;1.10;;;;;;;;;;5096554;28;20035;-44
2021/12/25 12:06:46;;;;;;;1.98;1.45;;;;;;;;;;5113395;28;20027;-43
2021/12/25 12:09:18;;;;;;;3.63;2.53;;;;;;;;;;5116526;27;20044;-46
2021/12/25 12:11:45;;;;;;;4.63;3.72;;;;;;;;;;5121174;27;20023;-47
2021/12/25 12:14:16;;;;;;;7.22;2.45;;;;;;;;;;5119259;27;20026;-45
2021/12/25 12:16:52;;;;;;;4.78;2.17;;;;;;;;;;5122532;27;20480;-45
2021/12/25 12:21:58;;;;;;;1.33;0.85;;;;;;;;;;5121191;27;20040;-45
2021/12/25 12:25:12;;;;;;;3.97;3.33;;;;;;;;;;5119383;27;20042;-44
2021/12/25 12:27:30;;;;;;;7.15;5.20;;;;;;;;;;5124314;27;20109;-42
2021/12/25 12:29:57;;;;;;;3.30;1.38;;;;;;;;;;5122580;27;20019;-41
2021/12/25 12:32:23;;;;;;;1.42;0.75;;;;;;;;;;5119481;27;20384;-44
2021/12/25 12:34:51;;;;;;;2.45;1.63;;;;;;;;;;5121680;27;20016;-40
2021/12/25 12:37:16;;;;;;;3.55;2.25;;;;;;;;;;5120872;27;20104;-41
2021/12/25 12:40:04;;;;;;;5.18;3.30;;;;;;;;;;5122285;27;20081;-43
2021/12/25 12:42:47;;;;;;;3.17;1.27;;;;;;;;;;5118333;27;20107;-39
2021/12/25 12:45:22;;;;;;;3.78;1.88;;;;;;;;;;5120902;27;20019;-38
2021/12/25 12:48:06;;;;;;;1.13;0.93;;;;;;;;;;5116177;27;20031;-39
2021/12/25 12:50:32;;;;;;;1.27;0.90;;;;;;;;;;5119811;27;20094;-38
2021/12/25 12:52:58;;;;;;;8.65;1.67;;;;;;;;;;5122152;27;20399;-40
2021/12/25 12:55:32;;;;;;;2.28;1.15;;;;;;;;;;5118402;27;20563;-39
2021/12/25 12:58:09;;;;;;;1.13;0.70;;;;;;;;;;5122376;27;20023;-39
2021/12/25 13:00:35;;;;;;;1.05;0.65;;;;;;;;;;5116394;27;20469;-42
2021/12/25 13:03:00;;;;;;;0.95;0.40;;;;;;;;;;5117871;27;20028;-39
2021/12/25 13:05:30;;;;;;;2.15;0.95;;;;;;;;;;5119941;27;20024;-40
2021/12/25 13:07:57;;;;;;;1.10;0.30;;;;;;;;;;5118723;27;20119;-42
2021/12/25 13:13:06;;;;;;;0.90;0.80;;;;;;;;;;5119552;27;20026;-38
2021/12/25 13:15:33;;;;;;;1.45;1.02;;;;;;;;;;5119998;27;20064;-39
2021/12/25 13:18:00;;;;;;;0.75;0.57;;;;;;;;;;5118739;27;20079;-38
2021/12/25 13:20:42;;;;;;;2.00;1.60;;;;;;;;;;5117630;27;20048;-42
2021/12/25 13:23:09;;;;;;;0.75;0.68;;;;;;;;;;5121376;27;20058;-44
2021/12/25 13:25:38;;;;;;;3.05;1.17;;;;;;;;;;5116100;27;20106;-42
2021/12/25 13:28:04;;;;;;;5.22;1.88;;;;;;;;;;5119828;27;20019;-41
2021/12/25 13:30:31;;;;;;;0.55;0.40;;;;;;;;;;5120921;27;20019;-40
2021/12/25 13:33:06;;;;;;;2.67;0.77;;;;;;;;;;5120814;27;20019;-42
2021/12/25 13:35:32;;;;;;;1.67;1.05;;;;;;;;;;5118301;27;20016;-41
2021/12/25 13:37:58;;;;;;;6.40;1.17;;;;;;;;;;5117894;27;20479;-43
2021/12/25 13:40:24;;;;;;;2.85;1.90;;;;;;;;;;5118225;27;20031;-43
2021/12/25 13:42:49;;;;;;;3.47;1.40;;;;;;;;;;5119921;27;20027;-44
2021/12/25 13:45:14;;;;;;;3.58;1.13;;;;;;;;;;5114625;27;20369;-40
2021/12/25 13:47:40;;;;;;;2.95;0.80;;;;;;;;;;5115267;27;20109;-42
2021/12/25 13:50:07;;;;;;;1.73;0.63;;;;;;;;;;5118618;27;20110;-49
2021/12/25 13:52:34;;;;;;;0.90;0.60;;;;;;;;;;5117047;27;20504;-41
2021/12/25 13:55:08;;;;;;;0.75;0.40;;;;;;;;;;5112057;27;20435;-41
2021/12/25 13:57:34;;;;;;;5.03;3.38;;;;;;;;;;5120547;27;20023;-39
2021/12/25 14:00:06;;;;;;;18.27;16.48;;;;;;;;;;5115005;27;20019;-41
2021/12/25 14:02:31;;;;;;;10.65;5.32;;;;;;;;;;5113970;27;20020;-42
2021/12/25 14:04:56;;;;;;;19.77;14.88;;;;;;;;;;5114997;27;20047;-43
2021/12/25 14:07:23;;;;;;;5.55;3.05;;;;;;;;;;5115541;27;20468;-41
2021/12/25 14:09:52;;;;;;;2.85;1.70;;;;;;;;;;5115080;27;20015;-39
2021/12/25 14:12:21;;;;;;;2.33;1.25;;;;;;;;;;5119430;27;20019;-46
2021/12/25 14:14:46;;;;;;;2.80;0.82;;;;;;;;;;5117335;27;20094;-41
2021/12/25 14:17:12;;;;;;;3.55;1.20;;;;;;;;;;5116548;27;20110;-44
2021/12/25 14:19:39;;;;;;;1.80;0.95;;;;;;;;;;5116754;27;20150;-44
2021/12/25 14:22:05;;;;;;;1.70;1.27;;;;;;;;;;5114323;27;20055;-41
2021/12/25 14:24:44;;;;;;;2.78;0.90;;;;;;;;;;5119225;27;20552;-40
2021/12/25 14:27:10;;;;;;;2.10;0.80;;;;;;;;;;5114556;27;20047;-42
2021/12/25 14:29:36;;;;;;;2.53;1.92;;;;;;;;;;5122138;27;20020;-41
2021/12/25 14:32:01;;;;;;;4.38;3.22;;;;;;;;;;5118093;27;20026;-43
2021/12/25 14:34:28;;;;;;;3.72;1.40;;;;;;;;;;5122996;27;20028;-42
2021/12/25 14:36:53;;;;;;;1.45;0.65;;;;;;;;;;5125000;27;20019;-43
2021/12/25 14:39:19;;;;;;;1.33;0.60;;;;;;;;;;5123254;27;20439;-42
2021/12/25 14:41:44;;;;;;;1.98;1.02;;;;;;;;;;5124509;27;20015;-43
2021/12/25 14:44:31;;;;;;;6.18;2.28;;;;;;;;;;5123068;27;20031;-47
2021/12/25 14:47:08;;;;;;;8.90;4.85;;;;;;;;;;5123685;27;20030;-40
2021/12/25 14:49:41;;;;;;;5.40;2.28;;;;;;;;;;5117176;27;20035;-41
2021/12/25 14:52:06;;;;;;;2.88;2.45;;;;;;;;;;5123949;27;20021;-40
2021/12/25 14:54:32;;;;;;;4.15;2.38;;;;;;;;;;5118786;27;20019;-40
2021/12/25 14:56:58;;;;;;;3.10;1.10;;;;;;;;;;5126008;27;20101;-41
2021/12/25 14:59:24;;;;;;;3.75;2.03;;;;;;;;;;5125887;27;20146;-44
2021/12/25 15:01:51;;;;;;;3.58;2.35;;;;;;;;;;5126466;27;20495;-41
2021/12/25 15:04:25;;;;;;;4.43;2.50;;;;;;;;;;5121269;27;20080;-41
2021/12/25 15:06:54;;;;;;;1.75;0.98;;;;;;;;;;5124209;27;20027;-41
2021/12/25 15:09:22;;;;;;;1.65;0.95;;;;;;;;;;5128395;27;20020;-39
2021/12/25 15:12:12;;;;;;;2.33;0.88;;;;;;;;;;5121152;27;20478;-41
2021/12/25 15:14:39;;;;;;;2.33;1.05;;;;;;;;;;5112918;27;20026;-41
2021/12/25 15:17:13;;;;;;;2.75;2.20;;;;;;;;;;5121598;27;20391;-43
2021/12/25 15:19:43;;;;;;;6.72;3.80;;;;;;;;;;5127197;27;20048;-40
2021/12/25 15:22:19;;;;;;;11.18;3.97;;;;;;;;;;5122431;27;20128;-42
2021/12/25 15:24:52;;;;;;;10.32;4.90;;;;;;;;;;5122288;27;20015;-42
2021/12/25 15:27:22;;;;;;;3.22;1.85;;;;;;;;;;5126092;27;20033;-41
2021/12/25 15:29:50;;;;;;;5.47;1.77;;;;;;;;;;5122914;27;20019;-40
2021/12/25 15:32:16;;;;;;;6.45;4.28;;;;;;;;;;5114050;27;20464;-43
2021/12/25 15:34:55;;;;;;;2.60;1.83;;;;;;;;;;5113837;28;20015;-40
2021/12/25 15:37:23;;;;;;;8.02;3.75;;;;;;;;;;5121976;27;20038;-41
2021/12/25 15:39:49;;;;;;;5.93;3.58;;;;;;;;;;5114956;27;20020;-41
2021/12/25 15:42:16;;;;;;;7.32;3.67;;;;;;;;;;5118238;27;20114;-42
2021/12/25 15:44:42;;;;;;;10.52;4.60;;;;;;;;;;5124924;27;20075;-41
2021/12/25 15:47:07;;;;;;;13.98;7.22;;;;;;;;;;5119765;27;20038;-44
2021/12/25 15:49:33;;;;;;;10.02;8.70;;;;;;;;;;5119221;27;20019;-41
2021/12/25 15:51:59;;;;;;;15.60;14.10;;;;;;;;;;5113404;28;20023;-44
2021/12/25 15:54:25;;;;;;;11.40;10.02;;;;;;;;;;5115730;28;20042;-40
2021/12/25 15:56:56;;;;;;;13.65;8.20;;;;;;;;;;5115870;28;20042;-41
2021/12/25 15:59:22;;;;;;;18.25;9.38;;;;;;;;;;5114637;28;20020;-44
2021/12/25 16:01:47;;;;;;;17.55;10.48;;;;;;;;;;5118802;28;20181;-42
2021/12/25 16:04:12;;;;;;;28.45;19.23;;;;;;;;;;5117841;28;20114;-43
2021/12/25 16:06:38;;;;;;;11.68;6.13;;;;;;;;;;5115945;28;20062;-43
2021/12/25 16:09:04;;;;;;;8.52;3.70;;;;;;;;;;5119239;28;20472;-41